createdAt,value
2019-02-27T00:01:52.852Z,17.13
2019-02-27T00:04:22.346Z,15.83
2019-02-27T00:06:51.878Z,17.13
2019-02-27T00:09:21.412Z,16.43
2019-02-27T00:11:51.014Z,16.63
2019-02-27T00:14:20.630Z,17.83
2019-02-27T00:16:50.281Z,15.43
2019-02-27T00:19:19.778Z,16.30
2019-02-27T00:21:49.315Z,17.10
2019-02-27T00:24:18.807Z,17.10
2019-02-27T00:26:48.339Z,15.43
2019-02-27T00:29:17.835Z,14.90
2019-02-27T00:31:47.370Z,16.50
2019-02-27T00:34:17.080Z,17.27
2019-02-27T00:36:47.614Z,16.83
2019-02-27T00:39:17.110Z,15.73
2019-02-27T00:41:46.741Z,15.87
2019-02-27T00:44:16.194Z,18.57
2019-02-27T00:46:46.367Z,18.20
2019-02-27T00:49:16.522Z,19.90
2019-02-27T00:51:46.054Z,19.57
2019-02-27T00:54:15.549Z,21.90
2019-02-27T00:56:45.698Z,23.00
2019-02-27T00:59:15.294Z,25.23
2019-02-27T01:01:47.277Z,23.67
2019-02-27T01:04:15.953Z,17.10
2019-02-27T01:06:47.441Z,16.37
2019-02-27T01:09:16.585Z,14.13
2019-02-27T01:11:46.081Z,14.30
2019-02-27T01:14:15.622Z,14.83
2019-02-27T01:16:45.119Z,13.17
2019-02-27T01:19:14.643Z,14.90
2019-02-27T01:21:44.138Z,14.00
2019-02-27T01:24:15.036Z,13.73
2019-02-27T01:26:44.793Z,13.60
2019-02-27T01:29:15.694Z,14.30
2019-02-27T01:31:45.433Z,13.37
2019-02-27T01:34:14.969Z,13.30
2019-02-27T01:36:44.465Z,14.87
2019-02-27T01:39:14.006Z,14.67
2019-02-27T01:41:43.566Z,13.37
2019-02-27T01:44:13.640Z,13.23
2019-02-27T01:46:43.729Z,14.17
2019-02-27T01:49:15.905Z,14.40
2019-02-27T01:51:44.384Z,14.43
2019-02-27T01:54:15.008Z,16.53
2019-02-27T01:56:45.123Z,15.47
2019-02-27T01:59:16.788Z,14.80
2019-02-27T02:01:45.771Z,14.10
2019-02-27T02:04:19.925Z,17.33
2019-02-27T02:06:47.554Z,17.80
2019-02-27T02:09:30.798Z,18.40
2019-02-27T02:12:03.030Z,18.83
2019-02-27T02:14:41.674Z,17.77
2019-02-27T02:17:19.937Z,17.73
2019-02-27T02:20:10.266Z,17.10
2019-02-27T02:22:48.658Z,17.70
2019-02-27T02:25:25.133Z,17.33
2019-02-27T02:28:00.814Z,17.30
2019-02-27T02:30:49.938Z,18.33
2019-02-27T02:33:40.573Z,18.20
2019-02-27T02:36:17.214Z,17.87
2019-02-27T02:38:52.583Z,19.87
2019-02-27T02:41:46.794Z,19.37
2019-02-27T02:44:21.068Z,19.83
2019-02-27T02:47:01.560Z,17.50
2019-02-27T02:50:08.412Z,18.00
2019-02-27T02:52:43.654Z,16.67
2019-02-27T02:55:34.196Z,17.00
2019-02-27T02:58:21.782Z,15.60
2019-02-27T03:01:03.028Z,17.57
2019-02-27T03:03:41.196Z,16.80
2019-02-27T03:06:19.658Z,16.40
2019-02-27T03:09:03.841Z,16.33
2019-02-27T03:11:56.045Z,17.13
2019-02-27T03:14:43.493Z,17.93
2019-02-27T03:17:28.064Z,18.20
2019-02-27T03:20:24.091Z,17.50
2019-02-27T03:22:59.523Z,15.23
2019-02-27T03:25:46.875Z,15.47
2019-02-27T03:28:41.012Z,15.33
2019-02-27T03:31:20.702Z,16.07
2019-02-27T03:34:11.341Z,15.70
2019-02-27T03:37:04.778Z,16.33
2019-02-27T03:40:11.803Z,15.67
2019-02-27T03:43:14.097Z,15.83
2019-02-27T03:46:19.729Z,16.93
2019-02-27T03:49:03.717Z,17.23
2019-02-27T03:52:00.667Z,15.00
2019-02-27T03:54:48.679Z,16.23
2019-02-27T03:57:33.003Z,14.67
2019-02-27T04:00:15.066Z,15.23
2019-02-27T04:02:46.113Z,17.80
2019-02-27T04:05:41.172Z,17.20
2019-02-27T04:08:21.074Z,15.93
2019-02-27T04:10:50.615Z,16.20
2019-02-27T04:13:20.134Z,17.30
2019-02-27T04:15:53.358Z,17.63
2019-02-27T04:18:20.674Z,18.03
2019-02-27T04:20:51.022Z,16.23
2019-02-27T04:23:21.545Z,18.43
2019-02-27T04:25:51.079Z,18.60
2019-02-27T04:28:20.575Z,19.13
2019-02-27T04:30:51.402Z,18.97
2019-02-27T04:33:23.179Z,19.50
2019-02-27T04:35:53.551Z,19.93
2019-02-27T04:38:25.079Z,19.80
2019-02-27T04:40:54.178Z,19.70
2019-02-27T04:43:23.671Z,19.43
2019-02-27T04:45:53.201Z,20.40
2019-02-27T04:48:22.699Z,20.40
2019-02-27T04:50:52.240Z,20.80
2019-02-27T04:53:21.730Z,19.07
2019-02-27T04:55:51.336Z,20.00
2019-02-27T04:58:20.868Z,19.87
2019-02-27T05:00:50.427Z,23.40
2019-02-27T05:03:19.911Z,22.07
2019-02-27T05:05:49.463Z,22.10
2019-02-27T05:08:18.957Z,22.53
2019-02-27T05:10:48.458Z,23.77
2019-02-27T05:13:20.503Z,24.53
2019-02-27T05:15:49.128Z,24.27
2019-02-27T05:18:18.671Z,22.70
2019-02-27T05:20:48.162Z,23.37
2019-02-27T05:23:17.695Z,23.47
2019-02-27T05:25:47.186Z,25.70
2019-02-27T05:28:16.713Z,25.60
2019-02-27T05:30:46.207Z,22.77
2019-02-27T05:33:15.741Z,23.83
2019-02-27T05:35:45.234Z,26.23
2019-02-27T05:38:14.771Z,23.50
2019-02-27T05:40:45.237Z,22.83
2019-02-27T05:43:14.774Z,20.80
2019-02-27T05:45:44.267Z,22.57
2019-02-27T05:48:13.805Z,21.30
2019-02-27T05:50:44.456Z,21.90
2019-02-27T05:53:14.045Z,21.27
2019-02-27T05:55:43.541Z,22.47
2019-02-27T05:58:13.074Z,30.53
2019-02-27T06:00:42.582Z,58.83
2019-02-27T06:03:12.122Z,40.97
2019-02-27T06:05:49.403Z,34.30
2019-02-27T06:08:13.789Z,30.30
2019-02-27T06:10:43.283Z,19.30
2019-02-27T06:13:14.193Z,19.53
2019-02-27T06:15:43.935Z,18.90
2019-02-27T06:18:13.466Z,18.97
2019-02-27T06:20:42.957Z,19.13
2019-02-27T06:23:12.487Z,17.07
2019-02-27T06:25:41.979Z,14.90
2019-02-27T06:28:11.506Z,14.47
2019-02-27T06:30:41.008Z,15.33
2019-02-27T06:33:11.793Z,16.83
2019-02-27T06:35:42.794Z,15.57
2019-02-27T06:38:12.314Z,14.57
2019-02-27T06:40:42.909Z,14.60
2019-02-27T06:43:12.619Z,14.53
2019-02-27T06:45:45.592Z,13.40
2019-02-27T06:48:13.326Z,15.73
2019-02-27T06:50:42.821Z,14.53
2019-02-27T06:53:15.582Z,13.93
2019-02-27T06:55:43.471Z,16.23
2019-02-27T06:58:14.791Z,25.80
2019-02-27T07:00:44.107Z,22.87
2019-02-27T07:03:13.629Z,23.87
2019-02-27T07:05:45.553Z,22.53
2019-02-27T07:08:14.357Z,23.77
2019-02-27T07:10:43.849Z,22.73
2019-02-27T07:13:13.418Z,21.83
2019-02-27T07:15:47.800Z,19.13
2019-02-27T07:18:14.091Z,17.10
2019-02-27T07:20:43.595Z,17.17
2019-02-27T07:23:13.122Z,15.40
2019-02-27T07:25:42.882Z,14.00
2019-02-27T07:28:12.725Z,15.10
2019-02-27T07:30:42.575Z,15.33
2019-02-27T07:33:12.861Z,15.70
2019-02-27T07:35:42.361Z,15.23
2019-02-27T07:38:11.915Z,16.63
2019-02-27T07:40:43.029Z,15.87
2019-02-27T07:43:12.567Z,14.20
2019-02-27T07:45:42.690Z,16.03
2019-02-27T07:48:13.260Z,19.10
2019-02-27T07:50:42.751Z,18.10
2019-02-27T07:53:12.290Z,15.73
2019-02-27T07:55:41.788Z,16.13
2019-02-27T07:58:11.322Z,15.20
2019-02-27T08:00:42.786Z,16.03
2019-02-27T08:03:13.089Z,13.93
2019-02-27T08:05:42.909Z,13.97
2019-02-27T08:08:12.475Z,14.40
2019-02-27T08:10:42.010Z,17.40
2019-02-27T08:13:11.522Z,18.13
2019-02-27T08:15:41.135Z,21.00
2019-02-27T08:18:10.754Z,20.70
2019-02-27T08:20:40.565Z,20.77
2019-02-27T08:23:10.062Z,21.50
2019-02-27T08:25:39.602Z,22.53
2019-02-27T08:28:09.102Z,19.67
2019-02-27T08:30:38.637Z,21.00
2019-02-27T08:33:08.977Z,20.70
2019-02-27T08:35:38.866Z,20.93
2019-02-27T08:38:08.375Z,21.93
2019-02-27T08:40:37.913Z,22.50
2019-02-27T08:43:10.316Z,23.93
2019-02-27T08:45:38.670Z,23.73
2019-02-27T08:48:08.170Z,25.43
2019-02-27T08:50:37.711Z,24.63
2019-02-27T08:53:07.410Z,24.53
2019-02-27T08:55:39.044Z,23.83
2019-02-27T08:58:07.631Z,25.60
2019-02-27T09:00:38.476Z,24.97
2019-02-27T09:03:07.633Z,23.83
2019-02-27T09:05:37.080Z,25.93
2019-02-27T09:08:07.341Z,24.60
2019-02-27T09:10:37.727Z,24.57
2019-02-27T09:13:07.420Z,24.37
2019-02-27T09:15:36.960Z,24.77
2019-02-27T09:18:06.467Z,24.97
2019-02-27T09:20:36.114Z,25.90
2019-02-27T09:23:05.611Z,27.37
2019-02-27T09:25:35.346Z,26.40
2019-02-27T09:28:09.041Z,27.07
2019-02-27T09:30:36.143Z,28.17
2019-02-27T09:33:05.706Z,25.97
2019-02-27T09:35:38.619Z,28.47
2019-02-27T09:38:08.557Z,28.03
2019-02-27T09:40:38.927Z,28.30
2019-02-27T09:43:09.134Z,32.15
2019-02-27T09:45:38.880Z,30.47
2019-02-27T09:48:12.450Z,29.77
2019-02-27T09:50:48.422Z,28.47
2019-02-27T09:53:17.559Z,29.90
2019-02-27T09:55:47.090Z,29.97
2019-02-27T09:58:16.577Z,28.97
2019-02-27T10:00:51.682Z,29.83
2019-02-27T10:03:21.946Z,29.57
2019-02-27T10:05:51.490Z,28.43
2019-02-27T10:08:21.042Z,28.70
2019-02-27T10:10:50.577Z,28.77
2019-02-27T10:13:20.353Z,28.10
2019-02-27T10:15:50.409Z,27.87
2019-02-27T10:18:22.031Z,27.83
2019-02-27T10:20:51.556Z,26.73
2019-02-27T10:23:21.145Z,28.00
2019-02-27T10:25:51.774Z,26.70
2019-02-27T10:28:21.306Z,26.63
2019-02-27T10:30:50.918Z,26.77
2019-02-27T10:33:20.463Z,27.57
2019-02-27T10:35:51.217Z,25.03
2019-02-27T10:38:20.710Z,27.17
2019-02-27T10:40:50.258Z,28.40
2019-02-27T10:43:21.168Z,24.97
2019-02-27T10:45:50.851Z,24.53
2019-02-27T10:48:20.378Z,23.97
2019-02-27T10:50:49.922Z,25.07
2019-02-27T10:53:19.477Z,25.80
2019-02-27T10:55:49.889Z,26.33
2019-02-27T10:58:20.481Z,27.07
2019-02-27T11:00:50.218Z,26.13
2019-02-27T11:03:23.642Z,24.70
2019-02-27T11:05:54.051Z,28.17
2019-02-27T11:08:23.173Z,27.93
2019-02-27T11:10:52.847Z,27.47
2019-02-27T11:13:22.378Z,26.67
2019-02-27T11:15:51.910Z,28.00
2019-02-27T11:18:21.519Z,29.43
2019-02-27T11:20:51.018Z,29.00
2019-02-27T11:23:20.561Z,29.17
2019-02-27T11:25:50.051Z,30.43
2019-02-27T11:28:19.660Z,29.70
2019-02-27T11:30:51.017Z,32.00
2019-02-27T11:33:25.460Z,33.10
2019-02-27T11:35:51.558Z,33.13
2019-02-27T11:38:24.148Z,34.07
2019-02-27T11:40:52.277Z,36.93
2019-02-27T11:43:21.809Z,35.33
2019-02-27T11:45:51.310Z,35.60
2019-02-27T11:48:22.846Z,35.23
2019-02-27T11:50:51.957Z,35.43
2019-02-27T11:53:21.558Z,34.17
2019-02-27T11:55:51.053Z,33.33
2019-02-27T11:58:20.583Z,36.83
2019-02-27T12:00:50.163Z,36.80
2019-02-27T12:03:19.678Z,35.90
2019-02-27T12:05:49.176Z,35.57
2019-02-27T12:08:18.707Z,35.77
2019-02-27T12:10:48.204Z,35.20
2019-02-27T12:13:17.741Z,34.60
2019-02-27T12:15:47.247Z,35.30
2019-02-27T12:18:16.786Z,37.57
2019-02-27T12:20:46.289Z,37.07
2019-02-27T12:23:15.823Z,36.37
2019-02-27T12:25:45.310Z,36.17
2019-02-27T12:28:18.127Z,35.90
2019-02-27T12:30:46.438Z,36.10
2019-02-27T12:33:16.196Z,35.77
2019-02-27T12:35:45.671Z,35.20
2019-02-27T12:38:15.165Z,35.13
2019-02-27T12:40:44.661Z,37.40
2019-02-27T12:43:17.439Z,36.63
2019-02-27T12:45:45.318Z,36.73
2019-02-27T12:48:14.845Z,39.80
2019-02-27T12:50:44.341Z,38.47
2019-02-27T12:53:13.870Z,40.17
2019-02-27T12:55:43.366Z,40.87
2019-02-27T12:58:13.468Z,38.63
2019-02-27T13:00:43.154Z,39.80
2019-02-27T13:03:12.731Z,41.33
2019-02-27T13:05:42.290Z,41.17
2019-02-27T13:08:11.831Z,42.07
2019-02-27T13:10:41.326Z,39.87
2019-02-27T13:13:10.862Z,42.73
2019-02-27T13:15:40.986Z,40.97
2019-02-27T13:18:11.287Z,42.17
2019-02-27T13:20:42.964Z,40.80
2019-02-27T13:23:11.978Z,41.43
2019-02-27T13:25:41.474Z,41.33
2019-02-27T13:28:11.022Z,41.90
2019-02-27T13:30:41.697Z,40.80
2019-02-27T13:33:11.731Z,42.67
2019-02-27T13:35:41.278Z,43.77
2019-02-27T13:38:10.770Z,45.03
2019-02-27T13:40:40.317Z,41.90
2019-02-27T13:43:09.810Z,41.97
2019-02-27T13:45:39.419Z,44.40
2019-02-27T13:48:08.924Z,46.37
2019-02-27T13:50:38.549Z,44.47
2019-02-27T13:53:08.053Z,45.67
2019-02-27T13:55:37.696Z,44.33
2019-02-27T13:58:07.561Z,44.00
2019-02-27T14:00:38.050Z,43.77
2019-02-27T14:03:12.113Z,44.10
2019-02-27T14:05:39.819Z,44.63
2019-02-27T14:08:09.385Z,45.03
2019-02-27T14:10:39.322Z,43.87
2019-02-27T14:13:09.853Z,42.00
2019-02-27T14:15:39.536Z,41.97
2019-02-27T14:18:09.024Z,41.17
2019-02-27T14:20:38.564Z,40.13
2019-02-27T14:23:08.133Z,38.90
2019-02-27T14:25:37.666Z,38.83
2019-02-27T14:28:07.175Z,35.53
2019-02-27T14:30:51.074Z,36.43
2019-02-27T14:33:20.720Z,35.30
2019-02-27T14:35:50.317Z,34.53
2019-02-27T14:38:21.984Z,35.53
2019-02-27T14:40:50.951Z,32.43
2019-02-27T14:43:20.605Z,35.30
2019-02-27T14:45:50.797Z,34.33
2019-02-27T14:48:21.611Z,32.00
2019-02-27T14:50:51.771Z,32.43
2019-02-27T14:53:21.275Z,32.93
2019-02-27T14:55:51.786Z,31.83
2019-02-27T14:58:24.022Z,30.73
2019-02-27T15:00:52.431Z,31.80
2019-02-27T15:03:21.987Z,29.87
2019-02-27T15:05:51.598Z,31.83
2019-02-27T15:08:21.159Z,29.43
2019-02-27T15:10:50.690Z,30.10
2019-02-27T15:13:20.249Z,27.23
2019-02-27T15:15:49.853Z,30.77
2019-02-27T15:18:22.431Z,30.70
2019-02-27T15:20:50.502Z,28.47
2019-02-27T15:23:19.990Z,28.80
2019-02-27T15:25:49.522Z,28.90
2019-02-27T15:28:19.024Z,29.17
2019-02-27T15:30:48.619Z,27.60
2019-02-27T15:33:18.187Z,30.47
2019-02-27T15:35:47.785Z,29.57
2019-02-27T15:38:17.290Z,27.93
2019-02-27T15:40:46.898Z,28.63
2019-02-27T15:43:17.316Z,28.30
2019-02-27T15:45:48.853Z,28.50
2019-02-27T15:48:18.633Z,29.50
2019-02-27T15:50:48.172Z,31.30
2019-02-27T15:53:17.662Z,29.77
2019-02-27T15:55:47.264Z,28.37
2019-02-27T15:58:17.742Z,32.03
2019-02-27T16:00:52.293Z,33.23
2019-02-27T16:03:18.438Z,31.87
2019-02-27T16:05:47.972Z,34.47
2019-02-27T16:08:20.148Z,31.50
2019-02-27T16:10:54.835Z,30.80
2019-02-27T16:13:19.751Z,31.10
2019-02-27T16:15:49.270Z,32.23
2019-02-27T16:18:18.782Z,32.00
2019-02-27T16:20:49.853Z,31.40
2019-02-27T16:23:20.401Z,32.07
2019-02-27T16:25:52.827Z,33.40
2019-02-27T16:28:21.046Z,32.80
2019-02-27T16:30:50.543Z,33.67
2019-02-27T16:33:23.880Z,33.63
2019-02-27T16:35:51.186Z,34.07
2019-02-27T16:38:20.722Z,33.43
2019-02-27T16:40:52.567Z,35.83
2019-02-27T16:43:21.362Z,35.80
2019-02-27T16:45:50.855Z,37.00
2019-02-27T16:48:20.396Z,37.17
2019-02-27T16:50:49.891Z,37.67
2019-02-27T16:53:19.665Z,36.50
2019-02-27T16:55:49.206Z,36.53
2019-02-27T16:58:18.804Z,37.20
2019-02-27T17:00:48.360Z,35.87
2019-02-27T17:03:17.883Z,38.77
2019-02-27T17:05:47.374Z,38.30
2019-02-27T17:08:16.967Z,38.60
2019-02-27T17:10:51.711Z,44.50
2019-02-27T17:13:19.476Z,40.23
2019-02-27T17:15:48.970Z,42.10
2019-02-27T17:18:18.493Z,41.13
2019-02-27T17:20:47.990Z,54.73
2019-02-27T17:23:17.517Z,40.97
2019-02-27T17:25:47.000Z,39.83
2019-02-27T17:28:16.531Z,44.10
2019-02-27T17:30:46.031Z,42.97
2019-02-27T17:33:15.908Z,51.73
2019-02-27T17:35:45.442Z,42.27
2019-02-27T17:38:14.974Z,42.17
2019-02-27T17:40:44.469Z,42.83
2019-02-27T17:43:14.002Z,41.30
2019-02-27T17:45:44.350Z,44.23
2019-02-27T17:48:14.639Z,43.80
2019-02-27T17:50:44.131Z,43.00
2019-02-27T17:53:13.672Z,51.13
2019-02-27T17:55:43.239Z,50.53
2019-02-27T17:58:12.773Z,46.30
2019-02-27T18:00:43.898Z,43.70
2019-02-27T18:03:13.418Z,44.90
2019-02-27T18:05:42.906Z,43.70
2019-02-27T18:08:15.937Z,42.63
2019-02-27T18:10:43.537Z,43.20
2019-02-27T18:13:14.042Z,40.63
2019-02-27T18:15:43.537Z,40.97
2019-02-27T18:18:13.074Z,40.93
2019-02-27T18:20:42.558Z,41.77
2019-02-27T18:23:12.083Z,42.63
2019-02-27T18:25:42.332Z,42.63
2019-02-27T18:28:11.910Z,40.57
2019-02-27T18:30:42.693Z,39.47
2019-02-27T18:33:14.291Z,39.97
2019-02-27T18:35:43.506Z,38.13
2019-02-27T18:38:13.317Z,41.13
2019-02-27T18:40:43.635Z,38.67
2019-02-27T18:43:13.360Z,37.80
2019-02-27T18:45:42.854Z,38.43
2019-02-27T18:48:15.087Z,39.97
2019-02-27T18:50:43.639Z,38.30
2019-02-27T18:53:14.110Z,39.27
2019-02-27T18:55:44.146Z,41.63
2019-02-27T18:58:13.746Z,43.07
2019-02-27T19:00:43.354Z,39.20
2019-02-27T19:03:13.109Z,36.30
2019-02-27T19:05:42.645Z,39.03
2019-02-27T19:08:12.273Z,36.57
2019-02-27T19:10:42.707Z,35.93
2019-02-27T19:13:12.331Z,35.87
2019-02-27T19:15:45.401Z,34.63
2019-02-27T19:18:12.971Z,35.97
2019-02-27T19:20:44.704Z,36.20
2019-02-27T19:23:17.232Z,34.37
2019-02-27T19:25:45.595Z,34.60
2019-02-27T19:28:15.145Z,37.10
2019-02-27T19:30:44.842Z,37.07
2019-02-27T19:33:14.322Z,36.67
2019-02-27T19:35:43.926Z,36.37
2019-02-27T19:38:13.867Z,36.33
2019-02-27T19:40:43.483Z,37.20
2019-02-27T19:43:13.089Z,34.40
2019-02-27T19:45:42.701Z,34.43
2019-02-27T19:48:12.361Z,35.33
2019-02-27T19:50:46.368Z,34.70
2019-02-27T19:53:16.046Z,34.07
2019-02-27T19:55:45.566Z,33.83
2019-02-27T19:58:18.152Z,33.93
2019-02-27T20:00:48.127Z,32.60
2019-02-27T20:03:17.398Z,33.83
2019-02-27T20:05:46.993Z,36.13
2019-02-27T20:08:16.626Z,36.20
2019-02-27T20:10:46.800Z,36.07
2019-02-27T20:13:16.311Z,35.87
2019-02-27T20:15:46.543Z,34.77
2019-02-27T20:18:17.248Z,34.80
2019-02-27T20:20:46.778Z,33.97
2019-02-27T20:23:16.262Z,34.63
2019-02-27T20:25:45.870Z,35.37
2019-02-27T20:28:15.440Z,32.53
2019-02-27T20:30:45.044Z,34.40
2019-02-27T20:33:14.528Z,34.97
2019-02-27T20:35:44.097Z,33.60
2019-02-27T20:38:16.095Z,34.90
2019-02-27T20:40:44.701Z,34.50
2019-02-27T20:43:14.262Z,34.20
2019-02-27T20:45:43.814Z,34.60
2019-02-27T20:48:13.360Z,34.17
2019-02-27T20:50:46.223Z,33.07
2019-02-27T20:53:15.717Z,34.40
2019-02-27T20:55:45.251Z,33.90
2019-02-27T20:58:16.748Z,33.20
2019-02-27T21:00:45.882Z,33.50
2019-02-27T21:03:15.367Z,33.10
2019-02-27T21:05:44.895Z,33.33
2019-02-27T21:08:14.386Z,32.87
2019-02-27T21:10:43.922Z,33.87
2019-02-27T21:13:15.958Z,33.07
2019-02-27T21:15:45.643Z,32.60
2019-02-27T21:18:15.135Z,32.30
2019-02-27T21:20:45.146Z,33.53
2019-02-27T21:23:17.314Z,33.80
2019-02-27T21:25:49.345Z,34.60
2019-02-27T21:28:20.906Z,36.80
2019-02-27T21:30:52.288Z,40.10
2019-02-27T21:33:20.699Z,39.83
2019-02-27T21:35:50.318Z,42.33
2019-02-27T21:38:19.822Z,41.23
2019-02-27T21:40:49.394Z,41.57
2019-02-27T21:43:19.340Z,42.17
2019-02-27T21:45:50.451Z,40.57
2019-02-27T21:48:19.986Z,40.70
2019-02-27T21:50:49.481Z,43.70
2019-02-27T21:53:19.092Z,43.60
2019-02-27T21:55:48.579Z,41.07
2019-02-27T21:58:20.624Z,48.40
2019-02-27T22:00:50.202Z,48.87
2019-02-27T22:03:19.726Z,53.83
2019-02-27T22:05:52.574Z,62.40
2019-02-27T22:08:20.386Z,58.20
2019-02-27T22:10:53.122Z,52.53
2019-02-27T22:13:28.793Z,45.27
2019-02-27T22:15:55.903Z,41.97
2019-02-27T22:18:23.374Z,37.40
2019-02-27T22:20:52.927Z,36.10
2019-02-27T22:23:22.470Z,33.40
2019-02-27T22:25:51.954Z,33.93
2019-02-27T22:28:21.490Z,30.90
2019-02-27T22:30:50.982Z,29.77
2019-02-27T22:33:23.005Z,32.23
2019-02-27T22:35:52.354Z,32.20
2019-02-27T22:38:25.553Z,30.03
2019-02-27T22:40:54.157Z,30.43
2019-02-27T22:43:24.057Z,29.77
2019-02-27T22:45:54.727Z,31.37
2019-02-27T22:48:27.753Z,28.33
2019-02-27T22:50:55.354Z,30.17
2019-02-27T22:53:26.237Z,30.73
2019-02-27T22:55:56.358Z,28.43
2019-02-27T22:58:27.436Z,27.73
2019-02-27T23:01:07.058Z,28.33
2019-02-27T23:03:48.333Z,27.40
2019-02-27T23:06:18.114Z,29.53
2019-02-27T23:08:49.045Z,29.47
2019-02-27T23:11:19.263Z,30.83
2019-02-27T23:13:48.942Z,30.50
2019-02-27T23:16:20.244Z,33.90
2019-02-27T23:18:49.850Z,33.73
2019-02-27T23:21:19.406Z,34.10
2019-02-27T23:23:48.941Z,33.00
2019-02-27T23:26:20.101Z,32.77
2019-02-27T23:28:49.585Z,33.50
2019-02-27T23:31:22.647Z,29.10
2019-02-27T23:33:50.441Z,30.57
2019-02-27T23:36:22.003Z,29.27
2019-02-27T23:38:51.093Z,28.33
2019-02-27T23:41:23.212Z,27.20
2019-02-27T23:43:52.762Z,29.20
2019-02-27T23:46:22.257Z,25.93
2019-02-27T23:48:51.799Z,24.43
2019-02-27T23:51:21.295Z,24.73
2019-02-27T23:53:50.825Z,23.33
2019-02-27T23:56:20.699Z,23.47
2019-02-27T23:58:50.544Z,22.30
